Nearby METARS Reports

 

LFML - Marseille/Marign, France
Distance from station: O 47km
Mise à jour: 10/12/2018 10:00
clair
clair
 Wind from NO
Vent: NO 48 km/h
Température: 11°C
Point de rosée: 4°C
Humidité: 62%
Baromètre: 1025 hPa
Résumé: clair
Visibility: greater than 10 km
2018/12/10 09:00 LFML 100900Z AUTO 32026KT CAVOK 11/04 Q1025 BECMG 32020G30KT
LFMC - Le Luc/Le Cannet, France
Distance from station: ESE 48km
Mise à jour: 10/12/2018 10:00

 Wind from NO
Vent: NO 31 km/h
Température: 13°C
Point de rosée: 1°C
Humidité: 44%
Baromètre: 1020 hPa
Visibility: 10 km
2018/12/10 09:00 LFMC 100900Z AUTO 32017KT 9999 ////// 13/01 Q1020
LFTH - Hyeres/Le Palyve, France
Distance from station: SSE 53km
Mise à jour: 10/12/2018 10:00
clair
clair
 Wind from NNO
Vent: NNO 26 km/h, Rafale: 48 km/h
Température: 14°C
Point de rosée: 1°C
Humidité: 41%
Baromètre: 1021 hPa
Résumé: clair
Visibility: greater than 10 km
2018/12/10 09:00 LFTH 100900Z AUTO 33014G26KT 300V360 CAVOK 14/01 Q1021 NOSIG